createdAt,value
2023-05-11T00:00:08.424Z,101365.16
2023-05-11T00:05:14.021Z,101359.78
2023-05-11T00:10:18.278Z,101359.78
2023-05-11T00:15:24.128Z,101353.44
2023-05-11T00:20:28.234Z,101354.38
2023-05-11T00:25:32.295Z,101347.13
2023-05-11T00:30:37.687Z,101351.97
2023-05-11T00:35:42.952Z,101354.84
2023-05-11T00:40:47.181Z,101351.13
2023-05-11T00:45:53.584Z,101352.13
2023-05-11T00:50:57.776Z,101345.75
2023-05-11T00:56:02.635Z,101350.84
2023-05-11T01:01:08.336Z,101349.22
2023-05-11T01:06:21.722Z,101353.91
2023-05-11T01:11:37.041Z,101352.25
2023-05-11T01:16:47.300Z,101355.69
2023-05-11T01:21:53.832Z,101347.84
2023-05-11T01:27:38.511Z,101355.00
2023-05-11T01:32:45.867Z,101356.81
2023-05-11T01:37:53.065Z,101359.88
2023-05-11T01:43:03.346Z,101350.66
2023-05-11T01:48:14.748Z,101363.03
2023-05-11T01:53:20.835Z,101369.09
2023-05-11T01:58:27.092Z,101364.84
2023-05-11T02:03:34.714Z,101359.47
2023-05-11T02:08:40.704Z,101362.06
2023-05-11T02:13:47.550Z,101362.75
2023-05-11T02:18:53.318Z,101360.81
2023-05-11T02:23:58.918Z,101370.72
2023-05-11T02:29:03.005Z,101355.88
2023-05-11T02:34:20.955Z,101350.94
2023-05-11T02:39:33.884Z,101357.00
2023-05-11T02:44:39.456Z,101359.59
2023-05-11T02:49:47.119Z,101356.16
2023-05-11T02:54:52.813Z,101355.50
2023-05-11T02:59:57.751Z,101354.78
2023-05-11T03:05:04.744Z,101340.91
2023-05-11T03:10:10.103Z,101351.38
2023-05-11T03:15:17.458Z,101346.59
2023-05-11T03:20:26.166Z,101348.94
2023-05-11T03:25:30.648Z,101344.16
2023-05-11T03:30:35.910Z,101341.63
2023-05-11T03:35:44.518Z,101341.09
2023-05-11T03:40:50.820Z,101351.84
2023-05-11T03:45:56.837Z,101346.88
2023-05-11T03:51:06.262Z,101346.22
2023-05-11T03:56:10.578Z,101361.50
2023-05-11T04:01:15.122Z,101351.91
2023-05-11T04:06:21.125Z,101361.34
2023-05-11T04:11:37.453Z,101357.38
2023-05-11T04:16:41.634Z,101360.97
2023-05-11T04:21:47.792Z,101356.06
2023-05-11T04:26:57.458Z,101364.47
2023-05-11T04:32:01.655Z,101355.53
2023-05-11T04:37:08.224Z,101368.47
2023-05-11T04:42:13.738Z,101366.69
2023-05-11T04:47:19.500Z,101363.50
2023-05-11T04:52:25.694Z,101377.38
2023-05-11T04:57:30.122Z,101386.47
2023-05-11T05:02:34.884Z,101373.81
2023-05-11T05:07:40.312Z,101372.44
2023-05-11T05:12:44.355Z,101388.28
2023-05-11T05:17:48.546Z,101387.69
2023-05-11T05:22:55.316Z,101398.03
2023-05-11T05:27:59.497Z,101390.31
2023-05-11T05:33:05.180Z,101398.03
2023-05-11T05:38:12.812Z,101404.47
2023-05-11T05:43:17.024Z,101418.09
2023-05-11T05:48:21.269Z,101424.69
2023-05-11T05:53:27.198Z,101426.38
2023-05-11T05:58:32.286Z,101435.97
2023-05-11T06:03:36.813Z,101430.59
2023-05-11T06:08:43.513Z,101438.72
2023-05-11T06:13:47.677Z,101440.94
2023-05-11T06:18:52.338Z,101434.72
2023-05-11T06:23:57.913Z,101436.66
2023-05-11T06:29:04.134Z,101436.38
2023-05-11T06:34:09.382Z,101441.91
2023-05-11T06:39:16.139Z,101444.81
2023-05-11T06:44:20.628Z,101446.03
2023-05-11T06:49:29.413Z,101441.03
2023-05-11T06:54:35.325Z,101455.25
2023-05-11T06:59:39.787Z,101449.03
2023-05-11T07:04:43.843Z,101449.44
2023-05-11T07:09:49.290Z,101450.00
2023-05-11T07:14:53.348Z,101470.19
2023-05-11T07:19:57.450Z,101469.91
2023-05-11T07:25:03.277Z,101467.97
2023-05-11T07:30:08.863Z,101466.44
2023-05-11T07:35:12.902Z,101470.00
2023-05-11T07:40:18.701Z,101475.53
2023-05-11T07:45:23.113Z,101474.03
2023-05-11T07:50:27.578Z,101472.38
2023-05-11T07:55:33.453Z,101470.59
2023-05-11T08:00:37.707Z,101473.75
2023-05-11T08:05:41.744Z,101490.00
2023-05-11T08:10:47.161Z,101478.84
2023-05-11T08:15:51.204Z,101495.81
2023-05-11T08:20:55.382Z,101481.75
2023-05-11T08:26:01.178Z,101497.59
2023-05-11T08:31:05.799Z,101480.25
2023-05-11T08:36:11.336Z,101495.66
2023-05-11T08:41:16.764Z,101491.81
2023-05-11T08:46:27.161Z,101496.34
2023-05-11T08:51:32.872Z,101503.91
2023-05-11T08:56:39.833Z,101503.25
2023-05-11T09:01:43.823Z,101498.69
2023-05-11T09:06:47.896Z,101493.44
2023-05-11T09:11:55.377Z,101506.66
2023-05-11T09:16:59.431Z,101508.84
2023-05-11T09:22:03.776Z,101505.00
2023-05-11T09:27:10.672Z,101509.94
2023-05-11T09:32:15.447Z,101509.22
2023-05-11T09:37:20.817Z,101506.06
2023-05-11T09:42:26.254Z,101507.53
2023-05-11T09:47:40.665Z,101509.28
2023-05-11T09:52:52.628Z,101502.13
2023-05-11T09:58:00.048Z,101504.41
2023-05-11T10:03:07.173Z,101500.41
2023-05-11T10:08:11.702Z,101506.03
2023-05-11T10:13:17.912Z,101503.69
2023-05-11T10:18:22.186Z,101496.41
2023-05-11T10:23:27.474Z,101489.47
2023-05-11T10:28:33.186Z,101495.16
2023-05-11T10:33:37.890Z,101493.72
2023-05-11T10:38:41.897Z,101491.97
2023-05-11T10:44:34.214Z,101491.41
2023-05-11T10:49:58.591Z,101498.81
2023-05-11T10:55:12.910Z,101498.41
2023-05-11T11:01:09.459Z,101492.19
2023-05-11T11:06:23.907Z,101476.97
2023-05-11T11:11:37.013Z,101468.47
2023-05-11T11:17:24.823Z,101469.78
2023-05-11T11:22:47.240Z,101455.41
2023-05-11T11:28:00.067Z,101441.38
2023-05-11T11:33:34.595Z,101444.47
2023-05-11T11:39:00.157Z,101434.69
2023-05-11T11:44:05.335Z,101438.09
2023-05-11T11:49:11.268Z,101434.63
2023-05-11T11:54:38.311Z,101436.13
2023-05-11T11:59:48.305Z,101427.31
2023-05-11T12:04:58.862Z,101427.63
2023-05-11T12:10:05.040Z,101422.53
2023-05-11T12:15:10.048Z,101421.34
2023-05-11T12:20:18.365Z,101424.47
2023-05-11T12:25:23.649Z,101417.88
2023-05-11T12:30:31.266Z,101420.00
2023-05-11T12:35:38.964Z,101409.34
2023-05-11T12:40:49.876Z,101409.19
2023-05-11T12:45:53.984Z,101404.59
2023-05-11T12:50:59.371Z,101403.63
2023-05-11T12:56:04.750Z,101404.75
2023-05-11T13:01:09.726Z,101393.09
2023-05-11T13:06:22.014Z,101391.75
2023-05-11T13:11:27.495Z,101390.69
2023-05-11T13:16:33.691Z,101385.72
2023-05-11T13:21:39.514Z,101372.03
2023-05-11T13:26:43.554Z,101382.91
2023-05-11T13:31:50.093Z,101382.31
2023-05-11T13:36:55.647Z,101373.06
2023-05-11T13:41:59.658Z,101364.56
2023-05-11T13:47:03.819Z,101370.13
2023-05-11T13:52:11.054Z,101372.31
2023-05-11T13:57:15.290Z,101366.63
2023-05-11T14:02:19.579Z,101366.31
2023-05-11T14:07:35.587Z,101370.00
2023-05-11T14:12:47.336Z,101377.47
2023-05-11T14:17:51.485Z,101371.53
2023-05-11T14:22:57.214Z,101375.03
2023-05-11T14:28:01.191Z,101379.94
2023-05-11T14:33:05.614Z,101381.97
2023-05-11T14:38:11.135Z,101384.63
2023-05-11T14:43:15.180Z,101384.28
2023-05-11T14:48:19.214Z,101395.28
2023-05-11T14:53:25.078Z,101394.09
2023-05-11T14:58:29.387Z,101399.69
2023-05-11T15:03:33.633Z,101411.31
2023-05-11T15:08:39.109Z,101410.97
2023-05-11T15:13:43.308Z,101406.88
2023-05-11T15:18:47.493Z,101398.00
2023-05-11T15:23:52.953Z,101401.31
2023-05-11T15:28:57.085Z,101403.06
2023-05-11T15:34:01.294Z,101407.03
2023-05-11T15:44:12.859Z,101413.09
2023-05-11T15:49:17.004Z,101404.56
2023-05-11T15:54:22.408Z,101410.97
2023-05-11T15:59:26.557Z,101413.09
2023-05-11T16:04:30.552Z,101410.09
2023-05-11T16:09:36.044Z,101416.16
2023-05-11T16:14:40.182Z,101413.50
2023-05-11T16:19:44.253Z,101409.06
2023-05-11T16:24:49.674Z,101411.94
2023-05-11T16:29:53.749Z,101409.31
2023-05-11T16:34:57.839Z,101416.81
2023-05-11T16:40:04.765Z,101413.19
2023-05-11T16:45:09.300Z,101420.56
2023-05-11T16:50:14.784Z,101426.41
2023-05-11T16:55:21.373Z,101420.97
2023-05-11T17:00:26.569Z,101421.28
2023-05-11T17:05:30.604Z,101428.50
2023-05-11T17:10:36.192Z,101434.19
2023-05-11T17:15:40.234Z,101428.78
2023-05-11T17:20:44.228Z,101431.72
2023-05-11T17:25:49.845Z,101435.28
2023-05-11T17:30:54.291Z,101441.50
2023-05-11T17:35:58.503Z,101443.75
2023-05-11T17:41:05.959Z,101440.63
2023-05-11T17:46:10.123Z,101445.88
2023-05-11T17:51:14.892Z,101449.31
2023-05-11T17:56:20.471Z,101442.56
2023-05-11T18:01:24.828Z,101445.88
2023-05-11T18:06:29.097Z,101439.47
2023-05-11T18:11:34.742Z,101437.00
2023-05-11T18:16:39.406Z,101443.91
2023-05-11T18:21:43.425Z,101435.06
2023-05-11T18:26:48.875Z,101450.63
2023-05-11T18:31:53.402Z,101451.28
2023-05-11T18:36:57.585Z,101456.53
2023-05-11T18:42:03.282Z,101450.16
2023-05-11T18:47:08.011Z,101458.34
2023-05-11T18:52:12.733Z,101461.28
2023-05-11T18:57:20.206Z,101469.81
2023-05-11T19:02:24.797Z,101472.44
2023-05-11T19:07:28.989Z,101469.91
2023-05-11T19:12:34.437Z,101485.38
2023-05-11T19:17:38.599Z,101488.78
2023-05-11T19:22:42.873Z,101482.91
2023-05-11T19:27:48.339Z,101488.31
2023-05-11T19:32:52.427Z,101498.28
2023-05-11T19:37:56.712Z,101494.31
2023-05-11T19:43:02.181Z,101507.41
2023-05-11T19:48:06.813Z,101507.41
2023-05-11T19:53:11.287Z,101512.78
2023-05-11T19:58:17.409Z,101518.47
2023-05-11T20:03:21.850Z,101522.56
2023-05-11T20:08:26.166Z,101530.22
2023-05-11T20:13:31.579Z,101530.50
2023-05-11T20:18:35.765Z,101542.41
2023-05-11T20:23:40.402Z,101530.97
2023-05-11T20:28:45.823Z,101538.97
2023-05-11T20:38:56.806Z,101548.75
2023-05-11T20:44:02.339Z,101538.59
2023-05-11T20:49:06.630Z,101536.47
2023-05-11T20:54:11.100Z,101535.66
2023-05-11T21:04:23.757Z,101532.25
2023-05-11T21:09:27.741Z,101539.66
2023-05-11T21:14:33.379Z,101546.53
2023-05-11T21:19:37.554Z,101541.00
2023-05-11T21:24:42.809Z,101544.56
2023-05-11T21:29:48.249Z,101559.63
2023-05-11T21:34:52.442Z,101560.59
2023-05-11T21:39:56.710Z,101558.94
2023-05-11T21:45:02.349Z,101554.69
2023-05-11T21:50:08.991Z,101554.00
2023-05-11T21:55:12.995Z,101550.13
2023-05-11T22:00:22.539Z,101556.47
2023-05-11T22:05:27.269Z,101555.56
2023-05-11T22:10:31.309Z,101554.88
2023-05-11T22:15:36.851Z,101561.63
2023-05-11T22:20:40.913Z,101558.75
2023-05-11T22:25:44.914Z,101561.69
2023-05-11T22:30:52.959Z,101559.75
2023-05-11T22:35:57.480Z,101557.81
2023-05-11T22:41:01.743Z,101556.84
2023-05-11T22:46:07.394Z,101557.81
2023-05-11T22:51:11.486Z,101562.69
2023-05-11T22:56:16.615Z,101558.09
2023-05-11T23:01:22.088Z,101562.28
2023-05-11T23:06:26.507Z,101548.88
2023-05-11T23:11:30.501Z,101556.91
2023-05-11T23:16:35.933Z,101549.19
2023-05-11T23:21:39.968Z,101552.63
2023-05-11T23:26:43.940Z,101558.00
2023-05-11T23:31:51.107Z,101551.72
2023-05-11T23:36:55.257Z,101553.63
2023-05-11T23:41:59.249Z,101549.88
2023-05-11T23:47:04.703Z,101544.06
2023-05-11T23:52:09.553Z,101541.81
2023-05-11T23:57:13.581Z,101548.59
